Time;durP1;ratioP1;P1;durP2;ratioP2;P2;SDS_P1;SDS_P2;PMS_P1;PMS_P2;Temp;Humidity;BMP_temperature;BMP_pressure;BME280_temperature;BME280_humidity;BME280_pressure;Samples;Min_cycle;Max_cycle;Signal;HPM_P1;HPM_P2
2023/05/03 00:01:30;;;;;;;9.80;8.80;;;;;;;3.78;100.00;102761.66;5012309;28;20481;-43
2023/05/03 00:03:58;;;;;;;8.97;8.27;;;;;;;3.75;100.00;102756.59;5012596;28;20480;-42
2023/05/03 00:06:25;;;;;;;11.93;8.10;;;;;;;3.73;100.00;102758.47;5012305;28;20476;-42
2023/05/03 00:08:53;;;;;;;8.40;7.60;;;;;;;3.73;100.00;102758.47;5012622;28;20429;-45
2023/05/03 00:11:22;;;;;;;8.70;8.10;;;;;;;3.74;100.00;102767.22;5012696;28;20831;-43
2023/05/03 00:13:50;;;;;;;10.07;8.10;;;;;;;3.76;100.00;102760.09;5012654;28;20808;-42
2023/05/03 00:16:18;;;;;;;13.90;9.00;;;;;;;3.77;100.00;102754.69;5012526;28;20437;-42
2023/05/03 00:18:46;;;;;;;8.27;7.50;;;;;;;3.77;100.00;102759.97;5005861;28;21009;-42
2023/05/03 00:21:15;;;;;;;8.73;7.97;;;;;;;3.77;100.00;102757.31;5012211;28;20529;-43
2023/05/03 00:23:43;;;;;;;12.90;9.80;;;;;;;3.74;100.00;102756.69;5012260;28;20495;-44
2023/05/03 00:26:11;;;;;;;13.03;8.27;;;;;;;3.71;100.00;102757.75;5025460;28;20436;-43
2023/05/03 00:28:40;;;;;;;8.77;7.50;;;;;;;3.69;100.00;102759.66;5020811;28;20464;-42
2023/05/03 00:31:08;;;;;;;11.23;9.70;;;;;;;3.64;100.00;102766.19;5012145;28;20998;-44
2023/05/03 00:33:36;;;;;;;9.20;8.30;;;;;;;3.60;100.00;102767.31;5011639;28;20433;-45
2023/05/03 00:36:08;;;;;;;10.17;8.87;;;;;;;3.58;100.00;102772.72;5012020;28;20437;-42
2023/05/03 00:38:36;;;;;;;12.43;8.70;;;;;;;3.56;100.00;102782.50;5011799;28;20469;-45
2023/05/03 00:41:04;;;;;;;8.70;8.10;;;;;;;3.54;100.00;102773.84;5012178;28;20484;-48
2023/05/03 00:43:32;;;;;;;10.03;8.57;;;;;;;3.53;100.00;102777.44;5011920;28;20468;-44
2023/05/03 00:46:05;;;;;;;13.50;8.93;;;;;;;3.51;100.00;102771.44;5012182;28;20441;-43
2023/05/03 00:48:43;;;;;;;8.50;7.97;;;;;;;3.47;100.00;102783.09;5009392;28;21282;-42
2023/05/03 00:51:14;;;;;;;8.63;8.03;;;;;;;3.45;100.00;102781.53;5012035;28;20482;-44
2023/05/03 00:53:42;;;;;;;13.83;8.80;;;;;;;3.43;100.00;102775.50;5011971;28;20822;-44
2023/05/03 00:56:11;;;;;;;9.70;8.97;;;;;;;3.41;100.00;102786.16;5012004;28;20444;-44
2023/05/03 00:58:39;;;;;;;9.43;8.70;;;;;;;3.37;100.00;102787.31;5011348;28;20469;-43
2023/05/03 01:01:08;;;;;;;9.10;8.27;;;;;;;3.36;100.00;102782.97;5011769;28;21028;-42
2023/05/03 01:03:40;;;;;;;9.37;8.47;;;;;;;3.32;100.00;102776.22;5011786;28;20472;-44
2023/05/03 01:06:16;;;;;;;8.87;8.27;;;;;;;3.30;100.00;102776.31;5011968;28;21052;-42
2023/05/03 01:08:50;;;;;;;11.83;9.73;;;;;;;3.27;100.00;102775.66;5011297;28;20471;-44
2023/05/03 01:11:27;;;;;;;11.87;8.10;;;;;;;3.24;100.00;102778.50;5011363;28;20441;-45
2023/05/03 01:13:57;;;;;;;9.03;8.13;;;;;;;3.20;100.00;102771.72;5011663;28;20429;-44
2023/05/03 01:16:34;;;;;;;12.00;9.40;;;;;;;3.17;100.00;102771.94;5011980;28;20472;-42
2023/05/03 01:19:07;;;;;;;9.40;8.43;;;;;;;3.15;100.00;102779.94;5009142;28;20476;-46
2023/05/03 01:21:36;;;;;;;13.57;9.20;;;;;;;3.14;100.00;102775.63;5011399;28;20459;-44
2023/05/03 01:24:11;;;;;;;9.03;8.33;;;;;;;3.12;100.00;102781.94;5011272;28;20818;-43
2023/05/03 01:26:40;;;;;;;8.93;8.23;;;;;;;3.10;100.00;102787.31;5028473;28;20433;-45
2023/05/03 01:29:08;;;;;;;10.83;9.07;;;;;;;3.09;100.00;102777.72;5016127;28;20519;-42
2023/05/03 01:31:39;;;;;;;10.00;8.20;;;;;;;3.08;100.00;102781.28;5011249;28;20456;-43
2023/05/03 01:34:21;;;;;;;10.07;9.27;;;;;;;3.06;100.00;102777.06;5011575;28;20429;-42
2023/05/03 01:36:50;;;;;;;9.83;8.97;;;;;;;3.05;100.00;102780.63;5011070;28;20429;-43
2023/05/03 01:39:27;;;;;;;11.13;8.67;;;;;;;3.03;100.00;102785.16;5011458;28;20436;-45
2023/05/03 01:41:58;;;;;;;10.20;9.43;;;;;;;3.01;100.00;102787.06;5011313;28;20814;-43
2023/05/03 01:44:26;;;;;;;9.07;8.47;;;;;;;2.99;100.00;102795.03;5011339;28;20472;-43
2023/05/03 01:46:54;;;;;;;10.03;9.23;;;;;;;2.96;100.00;102794.38;4999990;28;20790;-46
2023/05/03 01:49:22;;;;;;;10.27;9.47;;;;;;;2.94;100.00;102797.13;5013025;28;20448;-45
2023/05/03 01:51:49;;;;;;;16.80;10.70;;;;;;;2.92;100.00;102799.03;5011235;28;20796;-42
2023/05/03 01:54:17;;;;;;;9.10;8.40;;;;;;;2.89;100.00;102801.88;5011280;28;20436;-45
2023/05/03 01:56:45;;;;;;;10.23;9.10;;;;;;;2.88;100.00;102805.44;5011302;28;20440;-42
2023/05/03 01:59:14;;;;;;;10.07;9.13;;;;;;;2.88;100.00;102799.31;5010492;28;20464;-45
2023/05/03 02:01:42;;;;;;;9.40;8.50;;;;;;;2.87;100.00;102805.53;5010058;28;20453;-45
2023/05/03 02:04:10;;;;;;;10.57;8.87;;;;;;;2.85;100.00;102812.69;5010348;28;20480;-43
2023/05/03 02:06:38;;;;;;;10.80;9.80;;;;;;;2.83;100.00;102815.41;5011371;28;20479;-42
2023/05/03 02:09:06;;;;;;;9.53;8.83;;;;;;;2.84;100.00;102811.00;5010728;28;20544;-43
2023/05/03 02:11:33;;;;;;;8.73;8.13;;;;;;;2.81;100.00;102811.19;5010799;28;20544;-42
2023/05/03 02:14:01;;;;;;;11.47;10.47;;;;;;;2.81;100.00;102816.47;5011093;28;20440;-44
2023/05/03 02:16:30;;;;;;;11.53;8.43;;;;;;;2.77;100.00;102806.13;5011123;28;20915;-42
2023/05/03 02:18:58;;;;;;;9.30;8.50;;;;;;;2.76;100.00;102801.78;5006732;28;20480;-42
2023/05/03 02:21:26;;;;;;;10.53;7.07;;;;;;;2.76;100.00;102806.19;5010646;28;20828;-45
2023/05/03 02:23:54;;;;;;;10.67;8.33;;;;;;;2.73;100.00;102807.25;5011075;28;20480;-42
2023/05/03 02:26:22;;;;;;;8.60;7.80;;;;;;;2.71;100.00;102803.88;5025863;28;20432;-43
2023/05/03 02:28:50;;;;;;;17.43;7.67;;;;;;;2.70;100.00;102810.06;5021649;28;20475;-44
2023/05/03 02:31:17;;;;;;;9.67;8.83;;;;;;;2.70;100.00;102817.13;5014242;28;20459;-45
2023/05/03 02:33:46;;;;;;;10.50;7.87;;;;;;;2.67;100.00;102814.66;5014590;28;20437;-48
2023/05/03 02:36:14;;;;;;;8.87;7.90;;;;;;;2.64;100.00;102807.81;5014390;28;20425;-42
2023/05/03 02:38:41;;;;;;;9.60;8.70;;;;;;;2.61;100.00;102813.28;5013900;28;20468;-44
2023/05/03 02:41:09;;;;;;;9.60;8.90;;;;;;;2.59;100.00;102817.78;5014269;28;20452;-46
2023/05/03 02:43:37;;;;;;;9.23;8.33;;;;;;;2.58;100.00;102817.88;5012906;28;20452;-45
2023/05/03 02:46:04;;;;;;;13.00;8.90;;;;;;;2.56;100.00;102820.63;5013846;28;20473;-43
2023/05/03 02:48:32;;;;;;;10.40;8.27;;;;;;;2.54;100.00;102817.22;5014237;28;20544;-44
2023/05/03 02:51:02;;;;;;;8.80;8.10;;;;;;;2.51;100.00;102817.41;5033821;28;20443;-42
2023/05/03 02:53:29;;;;;;;9.70;8.90;;;;;;;2.51;100.00;102814.75;5033574;28;20523;-42
2023/05/03 02:55:57;;;;;;;12.73;9.60;;;;;;;2.49;100.00;102811.38;5033832;28;20478;-43
2023/05/03 02:58:25;;;;;;;9.40;8.50;;;;;;;2.47;100.00;102815.06;5033315;28;20460;-46
2023/05/03 03:00:52;;;;;;;10.93;9.50;;;;;;;2.45;100.00;102817.78;5033720;28;20563;-42
2023/05/03 03:03:20;;;;;;;9.53;8.70;;;;;;;2.40;100.00;102814.59;5033532;28;20432;-42
2023/05/03 03:05:48;;;;;;;18.03;8.90;;;;;;;2.41;100.00;102818.91;5033452;28;20472;-42
2023/05/03 03:08:18;;;;;;;9.77;9.00;;;;;;;2.41;100.00;102818.91;5033109;28;20460;-42
2023/05/03 03:10:45;;;;;;;9.87;8.80;;;;;;;2.42;100.00;102811.88;5033873;28;20841;-42
2023/05/03 03:13:13;;;;;;;12.20;10.10;;;;;;;2.43;100.00;102816.19;5033243;28;20440;-43
2023/05/03 03:15:41;;;;;;;12.27;9.23;;;;;;;2.42;100.00;102815.31;5033568;28;20428;-44
2023/05/03 03:18:08;;;;;;;11.40;8.63;;;;;;;2.43;100.00;102805.66;5033090;28;20522;-43
2023/05/03 03:20:36;;;;;;;9.37;8.77;;;;;;;2.44;100.00;102813.47;5033233;28;20531;-42
2023/05/03 03:23:04;;;;;;;11.67;10.50;;;;;;;2.44;100.00;102812.63;5033374;28;20443;-44
2023/05/03 03:25:33;;;;;;;10.10;9.20;;;;;;;2.44;100.00;102809.97;5032072;28;20475;-44
2023/05/03 03:28:00;;;;;;;10.33;9.10;;;;;;;2.43;100.00;102806.50;5027474;28;20463;-46
2023/05/03 03:30:28;;;;;;;12.50;10.20;;;;;;;2.47;100.00;102801.91;5013877;28;20455;-48
2023/05/03 03:32:56;;;;;;;10.40;9.43;;;;;;;2.46;100.00;102798.41;5013112;28;20437;-43
2023/05/03 03:35:24;;;;;;;10.40;9.60;;;;;;;2.48;100.00;102809.69;5013521;28;20436;-43
2023/05/03 03:37:52;;;;;;;9.60;8.80;;;;;;;2.54;100.00;102819.84;5012463;28;20515;-42
2023/05/03 03:40:20;;;;;;;9.70;8.90;;;;;;;2.58;100.00;102815.25;5013391;28;20433;-44
2023/05/03 03:42:48;;;;;;;10.83;9.60;;;;;;;2.64;100.00;102814.88;5013071;28;21012;-44
2023/05/03 03:45:16;;;;;;;14.30;10.53;;;;;;;2.67;100.00;102804.97;5013096;28;20465;-42
2023/05/03 03:47:44;;;;;;;13.13;10.80;;;;;;;2.73;100.00;102814.28;5013046;28;20444;-45
2023/05/03 03:50:12;;;;;;;11.50;9.83;;;;;;;2.78;100.00;102817.47;5006026;28;21044;-45
2023/05/03 03:52:40;;;;;;;10.53;9.83;;;;;;;2.82;100.00;102815.50;5012672;28;20452;-43
2023/05/03 03:55:08;;;;;;;11.13;10.03;;;;;;;2.85;100.00;102816.16;5012953;28;20433;-42
2023/05/03 03:57:35;;;;;;;9.67;8.87;;;;;;;2.89;100.00;102809.75;5012916;28;20433;-45
2023/05/03 04:00:09;;;;;;;19.27;10.33;;;;;;;2.94;100.00;102812.09;5012222;28;20461;-42
2023/05/03 04:02:37;;;;;;;13.83;11.90;;;;;;;2.98;100.00;102818.88;5012432;28;20452;-43
2023/05/03 04:05:06;;;;;;;11.03;10.03;;;;;;;3.03;100.00;102820.28;5012853;28;20469;-44
2023/05/03 04:07:34;;;;;;;11.67;10.67;;;;;;;3.09;100.00;102829.56;5012801;28;20551;-44
2023/05/03 04:10:02;;;;;;;12.63;9.80;;;;;;;3.14;100.00;102812.53;5012359;28;20846;-44
2023/05/03 04:12:30;;;;;;;8.87;8.23;;;;;;;3.20;100.00;102814.75;5012220;28;20453;-41
2023/05/03 04:14:57;;;;;;;9.33;8.63;;;;;;;3.30;100.00;102825.56;5012503;28;20923;-42
2023/05/03 04:17:28;;;;;;;9.90;9.20;;;;;;;3.33;100.00;102826.22;5012789;28;20425;-44
2023/05/03 04:19:55;;;;;;;10.27;9.50;;;;;;;3.42;100.00;102816.00;5012141;28;21010;-47
2023/05/03 04:22:23;;;;;;;10.80;9.90;;;;;;;3.52;100.00;102820.59;5012113;28;20974;-42
2023/05/03 04:24:51;;;;;;;10.47;9.40;;;;;;;3.71;100.00;102818.44;5014544;28;20487;-45
2023/05/03 04:27:19;;;;;;;10.03;9.23;;;;;;;4.16;100.00;102824.19;5032434;28;20432;-43
2023/05/03 04:29:47;;;;;;;10.03;9.13;;;;;;;4.61;100.00;102828.09;5012062;28;20887;-45
2023/05/03 04:32:15;;;;;;;10.77;10.03;;;;;;;4.97;100.00;102839.59;5012118;28;20452;-44
2023/05/03 04:34:45;;;;;;;10.17;9.40;;;;;;;5.35;100.00;102825.38;5012388;28;20516;-44
2023/05/03 04:37:16;;;;;;;10.57;9.87;;;;;;;5.77;100.00;102827.50;5012232;28;20575;-43
2023/05/03 04:39:44;;;;;;;11.23;10.10;;;;;;;6.25;100.00;102836.22;5011654;28;21057;-43
2023/05/03 04:42:14;;;;;;;8.97;8.37;;;;;;;6.65;100.00;102831.34;5012119;28;20461;-43
2023/05/03 04:44:42;;;;;;;8.90;8.10;;;;;;;7.07;100.00;102825.28;5012020;28;20487;-48
2023/05/03 04:47:10;;;;;;;9.30;8.60;;;;;;;7.43;100.00;102828.56;5011887;28;20476;-44
2023/05/03 04:49:38;;;;;;;8.00;7.30;;;;;;;7.94;100.00;102826.06;5007923;28;20464;-43
2023/05/03 04:52:09;;;;;;;7.23;6.83;;;;;;;8.72;100.00;102824.56;5011628;28;20468;-43
2023/05/03 04:54:36;;;;;;;8.07;7.47;;;;;;;9.83;100.00;102828.69;5012149;28;20441;-46
2023/05/03 04:57:04;;;;;;;6.93;6.43;;;;;;;11.14;100.00;102830.41;5012106;28;20426;-43
2023/05/03 04:59:31;;;;;;;7.63;6.93;;;;;;;12.25;100.00;102821.91;5011663;28;21130;-45
2023/05/03 05:01:59;;;;;;;7.00;6.60;;;;;;;13.20;100.00;102831.47;5011696;28;20457;-46
2023/05/03 05:04:27;;;;;;;7.40;6.90;;;;;;;14.23;100.00;102824.66;5011865;28;20433;-47
2023/05/03 05:06:55;;;;;;;6.90;6.50;;;;;;;14.92;100.00;102813.25;5011510;28;20472;-43
2023/05/03 05:09:25;;;;;;;6.07;5.77;;;;;;;15.53;100.00;102814.28;5011534;28;20559;-43
2023/05/03 05:11:53;;;;;;;6.07;5.67;;;;;;;16.18;98.92;102812.72;5011672;28;20459;-43
2023/05/03 05:14:24;;;;;;;5.67;5.23;;;;;;;16.24;84.12;102816.53;5011727;28;20436;-45
2023/05/03 05:16:51;;;;;;;6.20;5.63;;;;;;;15.80;82.39;102821.81;5011660;28;20849;-43
2023/05/03 05:19:19;;;;;;;7.23;4.97;;;;;;;15.22;81.46;102820.50;5011182;28;20465;-42
2023/05/03 05:21:47;;;;;;;5.00;4.70;;;;;;;14.57;76.73;102825.31;5011234;28;21212;-43
2023/05/03 05:24:15;;;;;;;8.47;5.20;;;;;;;14.08;82.45;102812.94;5011713;28;20444;-44
2023/05/03 05:26:44;;;;;;;5.67;5.23;;;;;;;13.92;89.65;102827.19;5028960;28;20508;-44
2023/05/03 05:29:12;;;;;;;6.23;5.53;;;;;;;13.95;89.41;102828.72;5016072;28;20464;-43
2023/05/03 05:31:39;;;;;;;6.17;5.57;;;;;;;13.53;89.05;102827.00;5011239;28;20448;-42
2023/05/03 05:34:07;;;;;;;5.30;4.80;;;;;;;13.12;88.06;102825.25;5011938;28;20448;-43
2023/05/03 05:36:35;;;;;;;5.93;5.53;;;;;;;12.72;90.63;102828.59;5011491;28;20433;-42
2023/05/03 05:39:03;;;;;;;5.83;5.40;;;;;;;12.57;92.63;102833.66;5011182;28;20475;-45
2023/05/03 05:41:31;;;;;;;6.90;5.20;;;;;;;12.09;87.95;102834.22;5011230;28;20459;-48
2023/05/03 05:44:00;;;;;;;8.23;5.10;;;;;;;12.40;94.44;102842.59;5011420;28;20737;-44
2023/05/03 05:46:27;;;;;;;6.00;4.70;;;;;;;12.81;85.63;102846.38;5011152;28;20480;-46
2023/05/03 05:48:55;;;;;;;4.80;4.40;;;;;;;12.02;93.38;102845.66;5009278;28;20492;-44
2023/05/03 05:51:22;;;;;;;7.60;5.00;;;;;;;11.36;95.28;102862.03;5011191;28;20452;-44
2023/05/03 05:53:50;;;;;;;5.93;5.10;;;;;;;10.96;100.00;102861.59;5011452;28;20433;-45
2023/05/03 05:56:18;;;;;;;12.97;5.57;;;;;;;10.37;100.00;102857.41;5011410;28;20517;-47
2023/05/03 05:58:45;;;;;;;6.20;5.60;;;;;;;9.88;100.00;102862.94;5010721;28;20464;-43
2023/05/03 06:01:14;;;;;;;8.50;5.87;;;;;;;9.61;100.00;102868.09;5013045;28;20455;-43
2023/05/03 06:03:42;;;;;;;5.50;5.20;;;;;;;9.23;100.00;102872.34;5015254;28;20974;-43
2023/05/03 06:06:10;;;;;;;5.70;5.40;;;;;;;9.10;100.00;102865.59;5014940;28;20569;-42
2023/05/03 06:08:38;;;;;;;7.27;5.40;;;;;;;9.01;100.00;102877.06;5014549;28;20468;-43
2023/05/03 06:11:06;;;;;;;8.40;5.53;;;;;;;8.76;100.00;102873.88;5014962;28;20460;-45
2023/05/03 06:13:37;;;;;;;6.90;5.73;;;;;;;8.81;100.00;102876.16;5014786;28;20448;-45
2023/05/03 06:16:05;;;;;;;8.73;5.10;;;;;;;8.93;100.00;102880.38;5015004;28;20479;-43
2023/05/03 06:18:34;;;;;;;6.13;5.63;;;;;;;8.80;100.00;102877.13;5012606;28;20560;-48
2023/05/03 06:21:02;;;;;;;7.73;5.73;;;;;;;8.76;100.00;102887.19;5014549;28;20488;-42
2023/05/03 06:23:31;;;;;;;7.83;5.80;;;;;;;8.86;100.00;102882.75;5014540;28;20445;-41
2023/05/03 06:25:58;;;;;;;6.47;5.13;;;;;;;9.19;100.00;102883.44;5025861;28;20432;-43
2023/05/03 06:28:26;;;;;;;9.83;6.70;;;;;;;9.23;100.00;102885.66;5025191;28;21049;-46
2023/05/03 06:30:54;;;;;;;6.20;5.60;;;;;;;9.16;100.00;102879.22;5014570;28;20460;-45
2023/05/03 06:33:21;;;;;;;13.93;5.73;;;;;;;9.25;100.00;102886.41;5014334;28;20780;-45
2023/05/03 06:35:51;;;;;;;7.57;4.97;;;;;;;9.28;100.00;102893.25;5014396;28;20506;-45
2023/05/03 06:38:18;;;;;;;6.77;5.63;;;;;;;9.33;100.00;102885.69;5013914;28;20457;-43
2023/05/03 06:40:46;;;;;;;8.90;5.93;;;;;;;9.52;100.00;102887.56;5014216;28;20540;-43
2023/05/03 06:43:14;;;;;;;7.30;5.23;;;;;;;9.57;100.00;102891.50;5014357;28;20437;-50
2023/05/03 06:45:43;;;;;;;8.37;5.17;;;;;;;9.72;100.00;102900.78;5014392;28;20815;-45
2023/05/03 06:48:11;;;;;;;9.93;5.80;;;;;;;9.89;100.00;102889.41;5013781;28;20468;-46
2023/05/03 06:50:39;;;;;;;5.93;5.63;;;;;;;10.11;100.00;102901.63;5013957;28;20437;-44
2023/05/03 06:53:08;;;;;;;10.03;6.17;;;;;;;10.33;100.00;102888.03;5013781;28;20437;-42
2023/05/03 06:55:35;;;;;;;8.23;6.47;;;;;;;10.45;100.00;102894.06;5014289;28;20433;-46
2023/05/03 06:58:08;;;;;;;5.80;5.40;;;;;;;10.48;100.00;102891.09;5013628;28;20439;-46
2023/05/03 07:00:37;;;;;;;5.90;5.37;;;;;;;10.57;100.00;102892.91;5014062;28;20432;-47
2023/05/03 07:03:05;;;;;;;6.00;5.40;;;;;;;10.75;100.00;102893.81;5013775;28;20436;-48
2023/05/03 07:05:33;;;;;;;9.20;5.07;;;;;;;10.86;100.00;102890.97;5013795;28;20433;-43
2023/05/03 07:08:02;;;;;;;7.80;5.43;;;;;;;10.70;100.00;102896.06;5013263;28;20469;-44
2023/05/03 07:10:31;;;;;;;5.97;5.50;;;;;;;10.83;100.00;102888.59;5013913;28;20743;-43
2023/05/03 07:12:59;;;;;;;6.53;5.53;;;;;;;11.00;100.00;102893.16;5012791;28;20432;-45
2023/05/03 07:15:26;;;;;;;5.50;5.00;;;;;;;12.26;100.00;102888.66;5013705;28;20468;-43
2023/05/03 07:17:54;;;;;;;6.83;5.07;;;;;;;13.30;100.00;102885.75;5013486;28;20430;-44
2023/05/03 07:20:22;;;;;;;8.33;5.57;;;;;;;14.20;97.73;102876.84;5013501;28;20939;-44
2023/05/03 07:22:49;;;;;;;6.60;5.20;;;;;;;14.98;87.22;102874.34;5013279;28;20440;-43
2023/05/03 07:25:17;;;;;;;8.27;5.07;;;;;;;15.94;82.06;102874.81;5019416;28;20436;-44
2023/05/03 07:27:46;;;;;;;5.47;4.97;;;;;;;16.53;76.79;102865.03;5029960;28;20468;-43
2023/05/03 07:30:14;;;;;;;15.80;7.20;;;;;;;16.92;64.92;102876.41;5012998;28;20468;-46
2023/05/03 07:32:42;;;;;;;8.63;5.20;;;;;;;16.87;66.40;102876.13;5012734;28;20453;-43
2023/05/03 07:35:10;;;;;;;5.10;4.53;;;;;;;17.12;64.89;102873.97;5013245;28;20433;-45
2023/05/03 07:37:38;;;;;;;5.47;5.00;;;;;;;17.52;64.79;102872.56;5013138;28;20433;-45
2023/05/03 07:40:06;;;;;;;7.77;6.00;;;;;;;17.45;62.74;102874.34;5012629;28;20464;-42
2023/05/03 07:42:34;;;;;;;7.27;5.13;;;;;;;17.26;59.33;102875.81;5012902;28;20461;-45
2023/05/03 07:45:03;;;;;;;5.13;4.53;;;;;;;17.50;62.33;102878.16;5012978;28;20444;-46
2023/05/03 07:47:31;;;;;;;6.27;5.63;;;;;;;17.04;59.29;102882.16;5013245;28;20476;-44
2023/05/03 07:50:00;;;;;;;5.23;4.60;;;;;;;16.66;57.03;102867.13;5010759;28;20469;-43
2023/05/03 07:52:28;;;;;;;7.33;5.53;;;;;;;15.79;59.61;102876.63;5012620;28;20540;-44
2023/05/03 07:54:55;;;;;;;7.50;4.97;;;;;;;15.54;62.93;102875.94;5012915;28;20433;-45
2023/05/03 07:57:24;;;;;;;8.43;5.13;;;;;;;15.30;60.32;102879.56;5013005;28;20428;-46
2023/05/03 07:59:52;;;;;;;6.17;5.07;;;;;;;14.25;59.63;102881.69;5012366;28;21257;-48
2023/05/03 08:02:21;;;;;;;5.20;4.70;;;;;;;13.41;64.82;102881.13;5012676;28;20448;-48
2023/05/03 08:04:49;;;;;;;4.80;4.20;;;;;;;13.23;66.76;102878.53;5013010;28;20444;-48
2023/05/03 08:07:17;;;;;;;6.53;5.67;;;;;;;13.21;63.35;102883.19;5012584;28;20472;-45
2023/05/03 08:09:44;;;;;;;6.00;4.50;;;;;;;12.54;68.10;102886.69;5012029;28;20465;-46
2023/05/03 08:12:12;;;;;;;9.50;5.03;;;;;;;12.12;76.92;102889.22;5012370;28;20822;-44
2023/05/03 08:14:40;;;;;;;5.70;4.40;;;;;;;11.36;84.48;102894.09;5012588;28;20437;-43
2023/05/03 08:17:08;;;;;;;7.40;5.33;;;;;;;11.09;93.61;102896.78;5012647;28;20425;-48
2023/05/03 08:19:37;;;;;;;8.63;5.07;;;;;;;10.69;100.00;102894.41;5012194;28;20465;-44
2023/05/03 08:22:06;;;;;;;7.13;5.10;;;;;;;10.48;100.00;102899.09;5012123;28;20459;-46
2023/05/03 08:24:33;;;;;;;6.60;4.83;;;;;;;10.46;100.00;102901.06;5012528;28;20437;-47
2023/05/03 08:27:01;;;;;;;6.93;5.10;;;;;;;10.53;100.00;102900.34;5025687;28;20842;-43
2023/05/03 08:29:29;;;;;;;6.30;5.37;;;;;;;10.48;100.00;102901.78;5014564;28;20836;-46
2023/05/03 08:31:57;;;;;;;5.83;5.20;;;;;;;10.57;100.00;102898.25;5012130;28;20449;-44
2023/05/03 08:34:25;;;;;;;8.90;5.60;;;;;;;10.54;100.00;102888.66;5012284;28;20444;-48
2023/05/03 08:36:54;;;;;;;11.67;5.50;;;;;;;10.40;100.00;102897.13;5012221;28;20438;-44
2023/05/03 08:39:23;;;;;;;5.40;4.23;;;;;;;10.46;94.62;102899.22;5011706;28;20465;-44
2023/05/03 08:41:51;;;;;;;6.27;4.50;;;;;;;10.69;98.04;102901.56;5012067;28;20452;-43
2023/05/03 08:44:22;;;;;;;10.67;4.80;;;;;;;10.86;97.57;102895.47;5012259;28;20460;-46
2023/05/03 08:46:49;;;;;;;10.27;4.67;;;;;;;10.71;100.00;102895.09;5012000;28;20433;-45
2023/05/03 08:49:18;;;;;;;8.90;4.73;;;;;;;10.59;94.69;102898.09;5008906;28;20476;-44
2023/05/03 08:51:47;;;;;;;6.97;3.90;;;;;;;10.68;95.27;102899.88;5011447;28;20464;-45
2023/05/03 08:54:19;;;;;;;4.30;3.93;;;;;;;10.83;96.75;102901.94;5012255;28;20970;-43
2023/05/03 08:56:47;;;;;;;7.17;4.67;;;;;;;10.86;91.70;102903.47;5011948;28;20981;-45
2023/05/03 08:59:16;;;;;;;6.13;4.00;;;;;;;11.15;86.07;102906.88;5011422;28;20535;-45
2023/05/03 09:01:44;;;;;;;4.93;3.83;;;;;;;11.18;78.29;102901.22;5011671;28;20591;-48
2023/05/03 09:04:12;;;;;;;6.43;4.27;;;;;;;11.18;81.04;102909.25;5011916;28;20441;-46
2023/05/03 09:06:40;;;;;;;5.43;4.90;;;;;;;11.43;83.71;102902.38;5011984;28;20532;-46
2023/05/03 09:09:08;;;;;;;5.00;4.13;;;;;;;11.70;84.01;102894.34;5011492;28;20473;-45
2023/05/03 09:11:38;;;;;;;5.93;3.90;;;;;;;12.55;77.03;102891.88;5011716;28;20453;-45
2023/05/03 09:14:10;;;;;;;6.80;4.63;;;;;;;13.40;75.72;102890.97;5011781;28;20441;-44
2023/05/03 09:16:39;;;;;;;4.97;4.47;;;;;;;13.49;62.23;102891.84;5011749;28;20428;-43
2023/05/03 09:19:10;;;;;;;3.70;3.50;;;;;;;13.61;66.08;102896.75;5011333;28;20472;-43
2023/05/03 09:21:39;;;;;;;4.10;3.53;;;;;;;12.81;59.12;102896.38;5011549;28;20449;-48
2023/05/03 09:24:13;;;;;;;6.80;3.80;;;;;;;12.80;64.08;102894.69;5011734;28;20511;-46
2023/05/03 09:26:44;;;;;;;6.67;3.37;;;;;;;12.37;61.82;102893.75;5028834;28;20431;-45
2023/05/03 09:29:27;;;;;;;6.50;3.80;;;;;;;12.13;64.73;102891.72;5015980;28;20897;-46
2023/05/03 09:32:00;;;;;;;5.03;4.40;;;;;;;12.07;73.19;102897.69;5011377;28;20448;-45
2023/05/03 09:34:28;;;;;;;6.70;4.03;;;;;;;11.77;76.19;102897.25;5016929;28;20870;-43
2023/05/03 09:36:55;;;;;;;3.83;3.53;;;;;;;11.80;75.85;102903.13;5020857;28;20952;-46
2023/05/03 09:39:23;;;;;;;4.13;3.77;;;;;;;11.73;78.25;102898.53;5021535;28;20465;-45
2023/05/03 09:41:52;;;;;;;5.50;4.13;;;;;;;11.52;82.46;102899.63;5021478;28;20556;-43
2023/05/03 09:44:20;;;;;;;4.40;4.00;;;;;;;11.71;77.72;102908.56;5021623;28;20437;-45
2023/05/03 09:47:04;;;;;;;6.37;3.90;;;;;;;11.75;86.89;102908.09;5021706;28;20520;-44
2023/05/03 09:49:32;;;;;;;7.63;4.27;;;;;;;11.64;83.92;102906.47;5020471;28;20543;-45
2023/05/03 09:52:01;;;;;;;7.30;4.30;;;;;;;11.61;88.83;102909.44;5020915;28;21010;-43
2023/05/03 09:54:30;;;;;;;5.30;4.80;;;;;;;11.46;94.13;102915.44;5021141;28;20432;-41
2023/05/03 09:57:01;;;;;;;6.13;4.23;;;;;;;11.40;100.00;102918.69;5021621;28;20425;-44
2023/05/03 09:59:29;;;;;;;5.07;4.30;;;;;;;11.24;100.00;102919.34;5020484;28;20457;-44
2023/05/03 10:01:58;;;;;;;7.30;4.57;;;;;;;11.34;99.81;102913.94;5020674;28;20452;-42
2023/05/03 10:04:27;;;;;;;5.80;4.13;;;;;;;11.44;94.82;102914.75;5020484;28;20437;-48
2023/05/03 10:06:59;;;;;;;4.87;4.43;;;;;;;11.53;89.21;102913.81;5020869;28;20496;-43
2023/05/03 10:09:38;;;;;;;5.63;5.13;;;;;;;11.71;90.06;102912.03;5020897;28;20515;-42
2023/05/03 10:12:11;;;;;;;5.57;4.87;;;;;;;11.84;81.85;102903.66;5020526;28;20467;-41
2023/05/03 10:14:41;;;;;;;5.10;4.60;;;;;;;12.02;85.11;102907.19;5020822;28;20437;-45
2023/05/03 10:17:16;;;;;;;4.27;3.80;;;;;;;12.22;81.13;102908.69;5020126;28;20441;-46
2023/05/03 10:19:51;;;;;;;5.67;4.20;;;;;;;12.11;78.59;102906.25;5020555;28;20456;-47
2023/05/03 10:22:18;;;;;;;8.20;3.80;;;;;;;12.18;76.85;102902.78;5020851;28;20973;-42
2023/05/03 10:25:07;;;;;;;6.20;4.10;;;;;;;12.52;75.96;102894.00;5022379;28;20445;-47
2023/05/03 10:28:02;;;;;;;9.03;4.00;;;;;;;12.81;70.85;102897.22;5038756;28;20918;-43
2023/05/03 10:30:31;;;;;;;4.37;3.80;;;;;;;12.75;69.94;102893.31;5019791;28;20441;-47
2023/05/03 10:33:18;;;;;;;4.80;3.90;;;;;;;13.50;69.54;102890.84;5021074;28;20433;-42
2023/05/03 10:35:51;;;;;;;4.47;4.00;;;;;;;13.56;64.43;102888.31;5021243;28;20433;-43
2023/05/03 10:38:21;;;;;;;4.40;3.63;;;;;;;13.42;65.41;102897.00;5020466;28;20487;-42
2023/05/03 10:40:49;;;;;;;4.60;4.20;;;;;;;13.23;64.64;102902.66;5020064;28;20499;-42
2023/05/03 10:43:45;;;;;;;5.87;4.20;;;;;;;13.12;67.55;102903.78;5019828;28;20806;-45
2023/05/03 10:46:34;;;;;;;4.30;3.90;;;;;;;13.08;64.00;102902.41;5020553;28;20433;-48
2023/05/03 10:49:22;;;;;;;4.20;3.90;;;;;;;13.43;63.28;102898.69;5018963;28;20551;-47
2023/05/03 10:51:50;;;;;;;4.30;4.00;;;;;;;14.27;61.90;102896.63;5019882;28;20523;-44
2023/05/03 10:54:18;;;;;;;4.87;4.47;;;;;;;14.47;60.96;102899.81;5020142;28;20511;-45
2023/05/03 10:56:51;;;;;;;4.83;4.23;;;;;;;14.68;54.23;102892.06;5020015;28;20439;-46
2023/05/03 10:59:20;;;;;;;4.37;3.97;;;;;;;14.80;57.10;102893.38;5019372;28;20465;-42
2023/05/03 11:01:50;;;;;;;5.40;3.67;;;;;;;15.11;55.94;102896.13;5019221;28;20507;-44
2023/05/03 11:04:34;;;;;;;4.70;3.93;;;;;;;15.57;52.81;102896.25;5020218;28;20456;-44
2023/05/03 11:07:03;;;;;;;5.47;4.20;;;;;;;15.10;53.06;102890.94;5019853;28;20417;-45
2023/05/03 11:09:33;;;;;;;5.17;4.10;;;;;;;14.36;55.68;102889.44;5019265;28;21014;-46
2023/05/03 11:12:05;;;;;;;5.47;4.53;;;;;;;14.88;55.87;102893.34;5019480;28;20453;-42
2023/05/03 11:14:34;;;;;;;5.83;3.90;;;;;;;14.84;55.95;102894.69;5019926;28;20427;-45
2023/05/03 11:17:02;;;;;;;5.17;4.63;;;;;;;14.55;59.11;102894.44;5017780;28;20439;-45
2023/05/03 11:19:30;;;;;;;4.83;4.37;;;;;;;14.67;55.58;102890.38;5016056;28;20467;-43
2023/05/03 11:21:58;;;;;;;5.63;4.63;;;;;;;14.72;56.00;102892.56;5017725;28;20453;-42
2023/05/03 11:24:25;;;;;;;6.37;4.40;;;;;;;14.73;57.29;102889.69;5018527;28;20433;-45
2023/05/03 11:26:53;;;;;;;11.57;4.60;;;;;;;14.48;54.15;102893.47;5037924;28;20434;-47
2023/05/03 11:29:21;;;;;;;4.53;4.13;;;;;;;14.05;59.69;102889.25;5022620;28;21021;-42
2023/05/03 11:31:51;;;;;;;7.40;4.30;;;;;;;13.70;62.95;102889.56;5018974;28;20460;-46